This is the latest recevied weather packets stored in our database for station/object WG5EEK. If no packets are shown the sender has not sent any weather packets the latest 10 day(s).
| Time | Temp. | Humidity | Pressure | Rain* | Wind** | Luminosity | Snow |
|---|---|---|---|---|---|---|---|
| 1777750921 | 22.78° C | 48% | 980.2 hPa | - | - | - | - |
| 1777748042 | 22.22° C | 48% | 980.9 hPa | - | - | - | - |
| 1777747322 | 22.22° C | 49% | 981.1 hPa | - | - | - | - |
| 1777746241 | 22.22° C | 50% | 981.4 hPa | - | - | - | - |
| 1777745161 | 21.67° C | 50% | 981.8 hPa | - | - | - | - |
| 1777744082 | 21.67° C | 51% | 982.5 hPa | - | - | - | - |
| 1777743388 | 21.11° C | 52% | 983.1 hPa | - | - | - | - |
| 1777742306 | 21.11° C | 52% | 983.6 hPa | - | - | - | - |
| 1777740483 | 20.56° C | 51% | 984.5 hPa | - | - | - | - |
| 1777736522 | 18.89° C | 51% | 986.6 hPa | - | - | - | - |
| 1777736163 | 18.89° C | 52% | 986.5 hPa | - | - | - | - |
| 1777734721 | 18.33° C | 54% | 987.7 hPa | - | - | - | - |
| 1777733282 | 17.22° C | 58% | 989.2 hPa | - | - | - | - |
| 1777732923 | 17.22° C | 60% | 989.5 hPa | - | - | - | - |
| 1777728961 | 15° C | 77% | 992.6 hPa | - | - | - | - |
| 1777726803 | 13.89° C | 79% | 993.6 hPa | - | - | - | - |
| 1777726107 | 13.89° C | 80% | 994 hPa | - | - | - | - |
| 1777724282 | 13.33° C | 81% | 994.9 hPa | - | - | - | - |
| 1777723201 | 12.78° C | 81% | 995 hPa | - | - | - | - |
| 1777722122 | 12.78° C | 81% | 995.1 hPa | - | - | - | - |
| 1777714922 | 12.22° C | 81% | 995.4 hPa | - | - | - | - |
| 1777714587 | 12.22° C | 80% | 995.4 hPa | - | - | - | - |
| 1777712403 | 12.22° C | 79% | 994.7 hPa | - | - | - | - |
| 1777705922 | 12.22° C | 77% | 994.9 hPa | - | - | - | - |
| 1777703761 | 12.78° C | 76% | 994 hPa | - | - | - | - |
* Rain since midnight (hover to see other rain measurements)
** Current wind speed in m/s (hover to see current wind gust speed)